sensor_id;sensor_type;location;lat;lon;timestamp;P1;durP1;ratioP1;P2;durP2;ratioP2
45730;SDS011;31440;48.584;13.460;2022-12-10T00:02:25;27.50;;;16.30;;
45730;SDS011;31440;48.584;13.460;2022-12-10T00:04:51;30.75;;;16.08;;
45730;SDS011;31440;48.584;13.460;2022-12-10T00:07:16;31.65;;;17.40;;
45730;SDS011;31440;48.584;13.460;2022-12-10T00:09:42;30.25;;;16.02;;
45730;SDS011;31440;48.584;13.460;2022-12-10T00:12:07;27.98;;;15.38;;
45730;SDS011;31440;48.584;13.460;2022-12-10T00:14:33;24.40;;;13.93;;
45730;SDS011;31440;48.584;13.460;2022-12-10T00:16:59;23.88;;;12.80;;
45730;SDS011;31440;48.584;13.460;2022-12-10T00:19:24;19.45;;;11.07;;
45730;SDS011;31440;48.584;13.460;2022-12-10T00:21:50;24.13;;;11.98;;
45730;SDS011;31440;48.584;13.460;2022-12-10T00:24:15;25.05;;;14.48;;
45730;SDS011;31440;48.584;13.460;2022-12-10T00:26:41;23.67;;;14.48;;
45730;SDS011;31440;48.584;13.460;2022-12-10T00:29:07;25.00;;;15.13;;
45730;SDS011;31440;48.584;13.460;2022-12-10T00:31:36;25.25;;;14.77;;
45730;SDS011;31440;48.584;13.460;2022-12-10T00:34:03;28.05;;;16.15;;
45730;SDS011;31440;48.584;13.460;2022-12-10T00:36:32;29.40;;;16.58;;
45730;SDS011;31440;48.584;13.460;2022-12-10T00:39:00;28.60;;;15.35;;
45730;SDS011;31440;48.584;13.460;2022-12-10T00:41:27;25.30;;;16.10;;
45730;SDS011;31440;48.584;13.460;2022-12-10T00:43:53;28.77;;;16.67;;
45730;SDS011;31440;48.584;13.460;2022-12-10T00:46:18;27.50;;;16.80;;
45730;SDS011;31440;48.584;13.460;2022-12-10T00:48:44;30.00;;;16.52;;
45730;SDS011;31440;48.584;13.460;2022-12-10T00:51:11;28.35;;;15.70;;
45730;SDS011;31440;48.584;13.460;2022-12-10T00:53:42;31.80;;;16.70;;
45730;SDS011;31440;48.584;13.460;2022-12-10T00:56:09;31.33;;;16.60;;
45730;SDS011;31440;48.584;13.460;2022-12-10T00:58:37;31.38;;;16.50;;
45730;SDS011;31440;48.584;13.460;2022-12-10T01:01:10;34.40;;;18.27;;
45730;SDS011;31440;48.584;13.460;2022-12-10T01:03:43;27.05;;;16.80;;
45730;SDS011;31440;48.584;13.460;2022-12-10T01:08:36;35.20;;;19.48;;
45730;SDS011;31440;48.584;13.460;2022-12-10T01:11:02;33.25;;;18.67;;
45730;SDS011;31440;48.584;13.460;2022-12-10T01:13:28;28.08;;;17.65;;
45730;SDS011;31440;48.584;13.460;2022-12-10T01:15:53;29.13;;;17.15;;
45730;SDS011;31440;48.584;13.460;2022-12-10T01:18:19;30.92;;;17.25;;
45730;SDS011;31440;48.584;13.460;2022-12-10T01:20:44;30.38;;;17.08;;
45730;SDS011;31440;48.584;13.460;2022-12-10T01:23:10;30.80;;;17.17;;
45730;SDS011;31440;48.584;13.460;2022-12-10T01:25:35;32.67;;;18.50;;
45730;SDS011;31440;48.584;13.460;2022-12-10T01:28:01;32.92;;;17.33;;
45730;SDS011;31440;48.584;13.460;2022-12-10T01:30:26;31.33;;;17.45;;
45730;SDS011;31440;48.584;13.460;2022-12-10T01:35:19;32.97;;;18.00;;
45730;SDS011;31440;48.584;13.460;2022-12-10T01:37:46;30.25;;;18.08;;
45730;SDS011;31440;48.584;13.460;2022-12-10T01:40:12;36.80;;;18.60;;
45730;SDS011;31440;48.584;13.460;2022-12-10T01:42:37;32.70;;;18.38;;
45730;SDS011;31440;48.584;13.460;2022-12-10T01:45:05;34.38;;;18.75;;
45730;SDS011;31440;48.584;13.460;2022-12-10T01:47:33;36.65;;;18.98;;
45730;SDS011;31440;48.584;13.460;2022-12-10T01:49:59;30.45;;;17.63;;
45730;SDS011;31440;48.584;13.460;2022-12-10T01:52:26;30.33;;;17.48;;
45730;SDS011;31440;48.584;13.460;2022-12-10T01:54:53;32.33;;;19.38;;
45730;SDS011;31440;48.584;13.460;2022-12-10T01:57:20;35.75;;;19.02;;
45730;SDS011;31440;48.584;13.460;2022-12-10T01:59:49;36.17;;;19.83;;
45730;SDS011;31440;48.584;13.460;2022-12-10T02:07:22;41.47;;;19.67;;
45730;SDS011;31440;48.584;13.460;2022-12-10T02:10:08;31.38;;;17.23;;
45730;SDS011;31440;48.584;13.460;2022-12-10T02:12:57;36.55;;;18.27;;
45730;SDS011;31440;48.584;13.460;2022-12-10T02:15:30;36.83;;;17.90;;
45730;SDS011;31440;48.584;13.460;2022-12-10T02:20:38;33.63;;;17.45;;
45730;SDS011;31440;48.584;13.460;2022-12-10T02:25:53;30.58;;;18.13;;
45730;SDS011;31440;48.584;13.460;2022-12-10T02:28:36;29.88;;;17.20;;
45730;SDS011;31440;48.584;13.460;2022-12-10T02:31:25;32.22;;;17.50;;
45730;SDS011;31440;48.584;13.460;2022-12-10T02:33:58;28.88;;;16.73;;
45730;SDS011;31440;48.584;13.460;2022-12-10T02:36:31;30.48;;;17.33;;
45730;SDS011;31440;48.584;13.460;2022-12-10T02:39:01;32.90;;;16.70;;
45730;SDS011;31440;48.584;13.460;2022-12-10T02:41:33;36.25;;;19.40;;
45730;SDS011;31440;48.584;13.460;2022-12-10T02:44:03;36.20;;;18.90;;
45730;SDS011;31440;48.584;13.460;2022-12-10T02:46:32;33.08;;;18.50;;
45730;SDS011;31440;48.584;13.460;2022-12-10T02:49:03;36.35;;;18.90;;
45730;SDS011;31440;48.584;13.460;2022-12-10T02:51:34;42.17;;;19.92;;
45730;SDS011;31440;48.584;13.460;2022-12-10T02:54:04;35.85;;;20.30;;
45730;SDS011;31440;48.584;13.460;2022-12-10T02:59:12;34.35;;;18.20;;
45730;SDS011;31440;48.584;13.460;2022-12-10T03:01:56;33.50;;;18.48;;
45730;SDS011;31440;48.584;13.460;2022-12-10T03:04:39;34.63;;;19.05;;
45730;SDS011;31440;48.584;13.460;2022-12-10T03:07:23;33.40;;;17.67;;
45730;SDS011;31440;48.584;13.460;2022-12-10T03:09:57;35.80;;;18.92;;
45730;SDS011;31440;48.584;13.460;2022-12-10T03:12:29;48.63;;;17.60;;
45730;SDS011;31440;48.584;13.460;2022-12-10T03:15:02;33.67;;;18.60;;
45730;SDS011;31440;48.584;13.460;2022-12-10T03:17:30;32.10;;;16.95;;
45730;SDS011;31440;48.584;13.460;2022-12-10T03:19:57;37.28;;;20.77;;
45730;SDS011;31440;48.584;13.460;2022-12-10T03:22:25;34.10;;;18.13;;
45730;SDS011;31440;48.584;13.460;2022-12-10T03:24:52;34.40;;;17.38;;
45730;SDS011;31440;48.584;13.460;2022-12-10T03:27:19;36.60;;;18.85;;
45730;SDS011;31440;48.584;13.460;2022-12-10T03:29:52;34.22;;;18.33;;
45730;SDS011;31440;48.584;13.460;2022-12-10T03:32:23;34.42;;;18.17;;
45730;SDS011;31440;48.584;13.460;2022-12-10T03:34:51;37.50;;;19.37;;
45730;SDS011;31440;48.584;13.460;2022-12-10T03:37:20;33.70;;;17.70;;
45730;SDS011;31440;48.584;13.460;2022-12-10T03:39:46;37.33;;;18.35;;
45730;SDS011;31440;48.584;13.460;2022-12-10T03:42:12;36.05;;;19.05;;
45730;SDS011;31440;48.584;13.460;2022-12-10T03:44:38;34.22;;;18.55;;
45730;SDS011;31440;48.584;13.460;2022-12-10T03:47:06;32.92;;;18.58;;
45730;SDS011;31440;48.584;13.460;2022-12-10T03:49:33;31.10;;;17.40;;
45730;SDS011;31440;48.584;13.460;2022-12-10T03:51:59;29.38;;;16.77;;
45730;SDS011;31440;48.584;13.460;2022-12-10T03:54:25;34.25;;;17.42;;
45730;SDS011;31440;48.584;13.460;2022-12-10T03:56:50;30.35;;;18.08;;
45730;SDS011;31440;48.584;13.460;2022-12-10T03:59:16;30.83;;;17.73;;
45730;SDS011;31440;48.584;13.460;2022-12-10T04:01:41;35.28;;;18.13;;
45730;SDS011;31440;48.584;13.460;2022-12-10T04:04:07;31.25;;;17.85;;
45730;SDS011;31440;48.584;13.460;2022-12-10T04:06:33;35.53;;;18.98;;
45730;SDS011;31440;48.584;13.460;2022-12-10T04:08:59;34.17;;;18.02;;
45730;SDS011;31440;48.584;13.460;2022-12-10T04:11:25;36.63;;;20.17;;
45730;SDS011;31440;48.584;13.460;2022-12-10T04:13:51;36.15;;;19.08;;
45730;SDS011;31440;48.584;13.460;2022-12-10T04:16:36;36.22;;;18.63;;
45730;SDS011;31440;48.584;13.460;2022-12-10T04:19:03;36.85;;;20.05;;
45730;SDS011;31440;48.584;13.460;2022-12-10T04:21:31;34.65;;;17.83;;
45730;SDS011;31440;48.584;13.460;2022-12-10T04:24:20;37.67;;;18.50;;
45730;SDS011;31440;48.584;13.460;2022-12-10T04:27:06;39.17;;;20.52;;
45730;SDS011;31440;48.584;13.460;2022-12-10T04:29:34;31.13;;;17.58;;
45730;SDS011;31440;48.584;13.460;2022-12-10T04:32:00;33.08;;;18.40;;
45730;SDS011;31440;48.584;13.460;2022-12-10T04:34:26;37.88;;;19.30;;
45730;SDS011;31440;48.584;13.460;2022-12-10T04:36:51;33.45;;;17.45;;
45730;SDS011;31440;48.584;13.460;2022-12-10T04:39:17;30.83;;;17.55;;
45730;SDS011;31440;48.584;13.460;2022-12-10T04:41:44;33.92;;;17.15;;
45730;SDS011;31440;48.584;13.460;2022-12-10T04:44:11;38.60;;;18.40;;
45730;SDS011;31440;48.584;13.460;2022-12-10T04:46:36;33.50;;;19.17;;
45730;SDS011;31440;48.584;13.460;2022-12-10T04:49:02;31.15;;;18.35;;
45730;SDS011;31440;48.584;13.460;2022-12-10T04:51:29;38.08;;;19.83;;
45730;SDS011;31440;48.584;13.460;2022-12-10T04:53:54;35.90;;;18.15;;
45730;SDS011;31440;48.584;13.460;2022-12-10T04:56:20;37.63;;;20.00;;
45730;SDS011;31440;48.584;13.460;2022-12-10T04:58:46;39.05;;;20.77;;
45730;SDS011;31440;48.584;13.460;2022-12-10T05:01:11;40.63;;;19.65;;
45730;SDS011;31440;48.584;13.460;2022-12-10T05:03:37;40.08;;;19.48;;
45730;SDS011;31440;48.584;13.460;2022-12-10T05:06:05;39.88;;;21.50;;
45730;SDS011;31440;48.584;13.460;2022-12-10T05:08:35;41.75;;;20.48;;
45730;SDS011;31440;48.584;13.460;2022-12-10T05:11:06;35.33;;;19.27;;
45730;SDS011;31440;48.584;13.460;2022-12-10T05:13:35;32.90;;;19.02;;
45730;SDS011;31440;48.584;13.460;2022-12-10T05:16:02;41.15;;;19.25;;
45730;SDS011;31440;48.584;13.460;2022-12-10T05:18:30;35.70;;;18.88;;
45730;SDS011;31440;48.584;13.460;2022-12-10T05:20:59;32.40;;;17.48;;
45730;SDS011;31440;48.584;13.460;2022-12-10T05:23:29;34.15;;;18.52;;
45730;SDS011;31440;48.584;13.460;2022-12-10T05:26:01;28.83;;;16.85;;
45730;SDS011;31440;48.584;13.460;2022-12-10T05:28:28;34.15;;;17.27;;
45730;SDS011;31440;48.584;13.460;2022-12-10T05:30:55;30.02;;;17.05;;
45730;SDS011;31440;48.584;13.460;2022-12-10T05:33:21;33.42;;;18.75;;
45730;SDS011;31440;48.584;13.460;2022-12-10T05:35:53;32.53;;;17.52;;
45730;SDS011;31440;48.584;13.460;2022-12-10T05:38:27;35.63;;;18.23;;
45730;SDS011;31440;48.584;13.460;2022-12-10T05:40:53;28.83;;;16.13;;
45730;SDS011;31440;48.584;13.460;2022-12-10T05:43:19;29.73;;;15.85;;
45730;SDS011;31440;48.584;13.460;2022-12-10T05:45:45;29.38;;;17.45;;
45730;SDS011;31440;48.584;13.460;2022-12-10T05:48:11;37.90;;;18.33;;
45730;SDS011;31440;48.584;13.460;2022-12-10T05:50:40;31.13;;;17.77;;
45730;SDS011;31440;48.584;13.460;2022-12-10T05:53:06;30.00;;;16.88;;
45730;SDS011;31440;48.584;13.460;2022-12-10T05:55:32;33.40;;;17.85;;
45730;SDS011;31440;48.584;13.460;2022-12-10T05:57:58;33.65;;;18.00;;
45730;SDS011;31440;48.584;13.460;2022-12-10T06:00:25;34.60;;;18.33;;
45730;SDS011;31440;48.584;13.460;2022-12-10T06:02:51;37.05;;;19.55;;
45730;SDS011;31440;48.584;13.460;2022-12-10T06:05:17;35.50;;;18.15;;
45730;SDS011;31440;48.584;13.460;2022-12-10T06:07:43;29.23;;;16.90;;
45730;SDS011;31440;48.584;13.460;2022-12-10T06:10:09;31.48;;;16.17;;
45730;SDS011;31440;48.584;13.460;2022-12-10T06:12:35;30.65;;;16.05;;
45730;SDS011;31440;48.584;13.460;2022-12-10T06:15:02;30.65;;;16.60;;
45730;SDS011;31440;48.584;13.460;2022-12-10T06:17:28;37.97;;;19.70;;
45730;SDS011;31440;48.584;13.460;2022-12-10T06:19:53;40.20;;;19.10;;
45730;SDS011;31440;48.584;13.460;2022-12-10T06:22:19;36.25;;;20.33;;
45730;SDS011;31440;48.584;13.460;2022-12-10T06:24:44;39.25;;;19.98;;
45730;SDS011;31440;48.584;13.460;2022-12-10T06:27:10;35.03;;;18.77;;
45730;SDS011;31440;48.584;13.460;2022-12-10T06:29:35;33.78;;;19.88;;
45730;SDS011;31440;48.584;13.460;2022-12-10T06:32:01;35.95;;;19.02;;
45730;SDS011;31440;48.584;13.460;2022-12-10T06:34:27;34.55;;;17.55;;
45730;SDS011;31440;48.584;13.460;2022-12-10T06:36:53;39.95;;;20.45;;
45730;SDS011;31440;48.584;13.460;2022-12-10T06:39:18;37.15;;;18.40;;
45730;SDS011;31440;48.584;13.460;2022-12-10T06:41:44;42.22;;;21.48;;
45730;SDS011;31440;48.584;13.460;2022-12-10T06:44:11;37.35;;;18.55;;
45730;SDS011;31440;48.584;13.460;2022-12-10T06:46:37;40.45;;;19.73;;
45730;SDS011;31440;48.584;13.460;2022-12-10T06:49:04;36.05;;;20.58;;
45730;SDS011;31440;48.584;13.460;2022-12-10T06:51:29;34.85;;;19.00;;
45730;SDS011;31440;48.584;13.460;2022-12-10T06:53:55;25.95;;;14.10;;
45730;SDS011;31440;48.584;13.460;2022-12-10T06:56:20;26.10;;;13.77;;
45730;SDS011;31440;48.584;13.460;2022-12-10T06:58:46;42.55;;;22.70;;
45730;SDS011;31440;48.584;13.460;2022-12-10T07:01:19;39.08;;;20.00;;
45730;SDS011;31440;48.584;13.460;2022-12-10T07:03:50;36.25;;;17.73;;
45730;SDS011;31440;48.584;13.460;2022-12-10T07:06:17;34.90;;;18.42;;
45730;SDS011;31440;48.584;13.460;2022-12-10T07:08:44;33.15;;;19.15;;
45730;SDS011;31440;48.584;13.460;2022-12-10T07:11:10;37.95;;;20.98;;
45730;SDS011;31440;48.584;13.460;2022-12-10T07:13:38;38.45;;;18.67;;
45730;SDS011;31440;48.584;13.460;2022-12-10T07:16:26;35.10;;;19.45;;
45730;SDS011;31440;48.584;13.460;2022-12-10T07:18:52;37.15;;;19.00;;
45730;SDS011;31440;48.584;13.460;2022-12-10T07:21:22;36.17;;;20.90;;
45730;SDS011;31440;48.584;13.460;2022-12-10T07:23:53;35.17;;;18.63;;
45730;SDS011;31440;48.584;13.460;2022-12-10T07:26:23;35.05;;;18.15;;
45730;SDS011;31440;48.584;13.460;2022-12-10T07:29:10;32.90;;;18.10;;
45730;SDS011;31440;48.584;13.460;2022-12-10T07:31:39;40.60;;;20.10;;
45730;SDS011;31440;48.584;13.460;2022-12-10T07:34:05;34.17;;;18.45;;
45730;SDS011;31440;48.584;13.460;2022-12-10T07:36:31;34.80;;;17.75;;
45730;SDS011;31440;48.584;13.460;2022-12-10T07:38:56;34.42;;;19.48;;
45730;SDS011;31440;48.584;13.460;2022-12-10T07:41:24;32.83;;;18.45;;
45730;SDS011;31440;48.584;13.460;2022-12-10T07:43:51;35.55;;;17.80;;
45730;SDS011;31440;48.584;13.460;2022-12-10T07:46:24;33.13;;;18.85;;
45730;SDS011;31440;48.584;13.460;2022-12-10T07:48:52;31.55;;;17.38;;
45730;SDS011;31440;48.584;13.460;2022-12-10T07:51:19;32.50;;;17.67;;
45730;SDS011;31440;48.584;13.460;2022-12-10T07:53:46;32.28;;;17.55;;
45730;SDS011;31440;48.584;13.460;2022-12-10T07:56:12;33.50;;;18.38;;
45730;SDS011;31440;48.584;13.460;2022-12-10T07:58:40;30.98;;;17.70;;
45730;SDS011;31440;48.584;13.460;2022-12-10T08:01:10;33.17;;;17.50;;
45730;SDS011;31440;48.584;13.460;2022-12-10T08:03:40;35.42;;;19.23;;
45730;SDS011;31440;48.584;13.460;2022-12-10T08:06:08;32.38;;;18.50;;
45730;SDS011;31440;48.584;13.460;2022-12-10T08:08:37;34.63;;;18.25;;
45730;SDS011;31440;48.584;13.460;2022-12-10T08:11:03;37.28;;;18.33;;
45730;SDS011;31440;48.584;13.460;2022-12-10T08:13:29;37.75;;;20.20;;
45730;SDS011;31440;48.584;13.460;2022-12-10T08:16:02;36.88;;;19.38;;
45730;SDS011;31440;48.584;13.460;2022-12-10T08:18:32;37.72;;;21.15;;
45730;SDS011;31440;48.584;13.460;2022-12-10T08:20:58;37.25;;;20.90;;
45730;SDS011;31440;48.584;13.460;2022-12-10T08:23:23;43.47;;;22.85;;
45730;SDS011;31440;48.584;13.460;2022-12-10T08:25:49;42.40;;;20.50;;
45730;SDS011;31440;48.584;13.460;2022-12-10T08:28:15;35.78;;;19.45;;
45730;SDS011;31440;48.584;13.460;2022-12-10T08:30:45;38.63;;;20.63;;
45730;SDS011;31440;48.584;13.460;2022-12-10T08:33:11;39.53;;;20.77;;
45730;SDS011;31440;48.584;13.460;2022-12-10T08:35:37;43.53;;;21.17;;
45730;SDS011;31440;48.584;13.460;2022-12-10T08:38:02;38.80;;;21.77;;
45730;SDS011;31440;48.584;13.460;2022-12-10T08:40:28;38.92;;;20.50;;
45730;SDS011;31440;48.584;13.460;2022-12-10T08:42:54;37.10;;;20.17;;
45730;SDS011;31440;48.584;13.460;2022-12-10T08:45:20;36.05;;;19.38;;
45730;SDS011;31440;48.584;13.460;2022-12-10T08:47:45;39.83;;;19.27;;
45730;SDS011;31440;48.584;13.460;2022-12-10T08:50:11;36.70;;;19.00;;
45730;SDS011;31440;48.584;13.460;2022-12-10T08:52:36;38.75;;;20.08;;
45730;SDS011;31440;48.584;13.460;2022-12-10T08:55:02;39.33;;;19.90;;
45730;SDS011;31440;48.584;13.460;2022-12-10T08:57:28;37.05;;;20.02;;
45730;SDS011;31440;48.584;13.460;2022-12-10T08:59:53;30.20;;;18.00;;
45730;SDS011;31440;48.584;13.460;2022-12-10T09:02:19;36.10;;;20.02;;
45730;SDS011;31440;48.584;13.460;2022-12-10T09:04:44;32.30;;;18.00;;
45730;SDS011;31440;48.584;13.460;2022-12-10T09:07:11;28.00;;;16.92;;
45730;SDS011;31440;48.584;13.460;2022-12-10T09:09:37;31.92;;;17.80;;
45730;SDS011;31440;48.584;13.460;2022-12-10T09:12:03;36.17;;;18.35;;
45730;SDS011;31440;48.584;13.460;2022-12-10T09:14:28;35.00;;;19.17;;
45730;SDS011;31440;48.584;13.460;2022-12-10T09:16:54;28.90;;;17.42;;
45730;SDS011;31440;48.584;13.460;2022-12-10T09:19:19;36.88;;;20.23;;
45730;SDS011;31440;48.584;13.460;2022-12-10T09:21:45;34.28;;;19.77;;
45730;SDS011;31440;48.584;13.460;2022-12-10T09:24:12;31.50;;;18.27;;
45730;SDS011;31440;48.584;13.460;2022-12-10T09:26:38;32.40;;;18.23;;
45730;SDS011;31440;48.584;13.460;2022-12-10T09:29:03;33.92;;;19.42;;
45730;SDS011;31440;48.584;13.460;2022-12-10T09:31:29;31.08;;;18.00;;
45730;SDS011;31440;48.584;13.460;2022-12-10T09:33:56;36.08;;;19.67;;
45730;SDS011;31440;48.584;13.460;2022-12-10T09:36:21;34.30;;;18.17;;
45730;SDS011;31440;48.584;13.460;2022-12-10T09:38:48;34.15;;;19.35;;
45730;SDS011;31440;48.584;13.460;2022-12-10T09:46:19;34.80;;;17.77;;
45730;SDS011;31440;48.584;13.460;2022-12-10T09:49:03;31.00;;;17.83;;
45730;SDS011;31440;48.584;13.460;2022-12-10T09:51:45;35.00;;;18.35;;
45730;SDS011;31440;48.584;13.460;2022-12-10T09:54:33;27.88;;;16.60;;
45730;SDS011;31440;48.584;13.460;2022-12-10T09:57:05;38.85;;;18.75;;
45730;SDS011;31440;48.584;13.460;2022-12-10T09:59:46;32.15;;;19.02;;
45730;SDS011;31440;48.584;13.460;2022-12-10T10:02:25;35.42;;;19.08;;
45730;SDS011;31440;48.584;13.460;2022-12-10T10:05:40;35.58;;;20.60;;
45730;SDS011;31440;48.584;13.460;2022-12-10T10:07:49;30.05;;;17.85;;
45730;SDS011;31440;48.584;13.460;2022-12-10T10:10:31;37.47;;;19.33;;
45730;SDS011;31440;48.584;13.460;2022-12-10T10:15:35;32.85;;;18.05;;
45730;SDS011;31440;48.584;13.460;2022-12-10T10:18:09;34.80;;;19.30;;
45730;SDS011;31440;48.584;13.460;2022-12-10T10:20:51;40.65;;;19.73;;
45730;SDS011;31440;48.584;13.460;2022-12-10T10:23:16;29.42;;;18.35;;
45730;SDS011;31440;48.584;13.460;2022-12-10T10:25:43;32.45;;;19.48;;
45730;SDS011;31440;48.584;13.460;2022-12-10T10:28:11;32.22;;;17.08;;
45730;SDS011;31440;48.584;13.460;2022-12-10T10:30:39;33.92;;;17.17;;
45730;SDS011;31440;48.584;13.460;2022-12-10T10:33:08;34.55;;;18.60;;
45730;SDS011;31440;48.584;13.460;2022-12-10T10:35:43;31.20;;;18.20;;
45730;SDS011;31440;48.584;13.460;2022-12-10T10:38:16;35.33;;;19.15;;
45730;SDS011;31440;48.584;13.460;2022-12-10T10:40:49;33.65;;;18.27;;
45730;SDS011;31440;48.584;13.460;2022-12-10T10:43:24;31.58;;;17.88;;
45730;SDS011;31440;48.584;13.460;2022-12-10T10:45:59;35.45;;;19.10;;
45730;SDS011;31440;48.584;13.460;2022-12-10T10:48:28;37.60;;;20.75;;
45730;SDS011;31440;48.584;13.460;2022-12-10T10:53:58;39.05;;;19.20;;
45730;SDS011;31440;48.584;13.460;2022-12-10T10:56:39;36.45;;;19.35;;
45730;SDS011;31440;48.584;13.460;2022-12-10T11:01:45;37.47;;;21.43;;
45730;SDS011;31440;48.584;13.460;2022-12-10T11:04:28;30.65;;;19.48;;
45730;SDS011;31440;48.584;13.460;2022-12-10T11:07:00;31.42;;;17.95;;
45730;SDS011;31440;48.584;13.460;2022-12-10T11:09:28;31.92;;;20.15;;
45730;SDS011;31440;48.584;13.460;2022-12-10T11:11:59;36.15;;;20.50;;
45730;SDS011;31440;48.584;13.460;2022-12-10T11:14:29;34.63;;;19.52;;
45730;SDS011;31440;48.584;13.460;2022-12-10T11:17:00;26.90;;;16.80;;
45730;SDS011;31440;48.584;13.460;2022-12-10T11:22:49;31.15;;;18.00;;
45730;SDS011;31440;48.584;13.460;2022-12-10T11:25:17;29.92;;;17.55;;
45730;SDS011;31440;48.584;13.460;2022-12-10T11:28:00;31.67;;;18.10;;
45730;SDS011;31440;48.584;13.460;2022-12-10T11:30:53;31.60;;;18.02;;
45730;SDS011;31440;48.584;13.460;2022-12-10T11:33:43;32.38;;;17.92;;
45730;SDS011;31440;48.584;13.460;2022-12-10T11:39:32;29.17;;;16.63;;
45730;SDS011;31440;48.584;13.460;2022-12-10T11:42:16;36.63;;;18.63;;
45730;SDS011;31440;48.584;13.460;2022-12-10T11:45:02;36.17;;;19.13;;
45730;SDS011;31440;48.584;13.460;2022-12-10T11:58:45;27.23;;;15.80;;
45730;SDS011;31440;48.584;13.460;2022-12-10T12:01:29;27.63;;;16.25;;
45730;SDS011;31440;48.584;13.460;2022-12-10T12:07:52;30.50;;;15.57;;
45730;SDS011;31440;48.584;13.460;2022-12-10T12:12:32;27.35;;;16.75;;
45730;SDS011;31440;48.584;13.460;2022-12-10T12:17:45;30.25;;;17.05;;
45730;SDS011;31440;48.584;13.460;2022-12-10T12:20:32;27.20;;;17.10;;
45730;SDS011;31440;48.584;13.460;2022-12-10T12:23:04;28.73;;;15.60;;
45730;SDS011;31440;48.584;13.460;2022-12-10T12:25:39;31.98;;;18.27;;
45730;SDS011;31440;48.584;13.460;2022-12-10T12:28:19;25.95;;;15.77;;
45730;SDS011;31440;48.584;13.460;2022-12-10T12:30:51;22.60;;;13.90;;
45730;SDS011;31440;48.584;13.460;2022-12-10T12:33:28;25.80;;;14.00;;
45730;SDS011;31440;48.584;13.460;2022-12-10T12:36:00;24.42;;;15.20;;
45730;SDS011;31440;48.584;13.460;2022-12-10T12:38:36;23.50;;;13.90;;
45730;SDS011;31440;48.584;13.460;2022-12-10T12:41:04;27.45;;;15.27;;
45730;SDS011;31440;48.584;13.460;2022-12-10T12:46:01;32.05;;;18.15;;
45730;SDS011;31440;48.584;13.460;2022-12-10T12:48:34;27.23;;;15.30;;
45730;SDS011;31440;48.584;13.460;2022-12-10T12:51:12;26.00;;;14.73;;
45730;SDS011;31440;48.584;13.460;2022-12-10T12:53:43;25.30;;;15.50;;
45730;SDS011;31440;48.584;13.460;2022-12-10T12:58:55;22.65;;;14.88;;
45730;SDS011;31440;48.584;13.460;2022-12-10T13:01:40;26.63;;;16.90;;
45730;SDS011;31440;48.584;13.460;2022-12-10T13:04:12;25.48;;;15.05;;
45730;SDS011;31440;48.584;13.460;2022-12-10T13:06:39;26.45;;;15.57;;
45730;SDS011;31440;48.584;13.460;2022-12-10T13:14:33;27.52;;;15.30;;
45730;SDS011;31440;48.584;13.460;2022-12-10T13:17:36;30.33;;;17.30;;
45730;SDS011;31440;48.584;13.460;2022-12-10T13:22:59;23.75;;;13.80;;
45730;SDS011;31440;48.584;13.460;2022-12-10T13:33:49;21.45;;;13.40;;
45730;SDS011;31440;48.584;13.460;2022-12-10T13:41:32;19.95;;;13.35;;
45730;SDS011;31440;48.584;13.460;2022-12-10T13:44:25;19.35;;;12.60;;
45730;SDS011;31440;48.584;13.460;2022-12-10T13:49:28;23.02;;;12.77;;
45730;SDS011;31440;48.584;13.460;2022-12-10T13:54:33;20.83;;;12.25;;
45730;SDS011;31440;48.584;13.460;2022-12-10T14:02:51;21.80;;;12.82;;
45730;SDS011;31440;48.584;13.460;2022-12-10T14:08:13;25.02;;;17.27;;
45730;SDS011;31440;48.584;13.460;2022-12-10T14:10:43;34.80;;;26.05;;
45730;SDS011;31440;48.584;13.460;2022-12-10T14:13:11;40.85;;;25.88;;
45730;SDS011;31440;48.584;13.460;2022-12-10T14:15:41;30.48;;;19.70;;
45730;SDS011;31440;48.584;13.460;2022-12-10T14:18:16;33.97;;;22.20;;
45730;SDS011;31440;48.584;13.460;2022-12-10T14:20:44;43.03;;;22.48;;
45730;SDS011;31440;48.584;13.460;2022-12-10T14:23:25;31.35;;;21.05;;
45730;SDS011;31440;48.584;13.460;2022-12-10T14:25:59;29.02;;;19.52;;
45730;SDS011;31440;48.584;13.460;2022-12-10T14:28:38;28.58;;;18.15;;
45730;SDS011;31440;48.584;13.460;2022-12-10T14:31:25;29.35;;;18.55;;
45730;SDS011;31440;48.584;13.460;2022-12-10T14:33:55;26.25;;;17.08;;
45730;SDS011;31440;48.584;13.460;2022-12-10T14:36:27;24.25;;;16.15;;
45730;SDS011;31440;48.584;13.460;2022-12-10T14:38:55;31.20;;;22.20;;
45730;SDS011;31440;48.584;13.460;2022-12-10T14:41:22;34.53;;;21.00;;
45730;SDS011;31440;48.584;13.460;2022-12-10T14:43:49;27.65;;;17.08;;
45730;SDS011;31440;48.584;13.460;2022-12-10T14:46:18;27.13;;;17.75;;
45730;SDS011;31440;48.584;13.460;2022-12-10T14:48:48;23.08;;;15.63;;
45730;SDS011;31440;48.584;13.460;2022-12-10T14:51:17;27.20;;;14.68;;
45730;SDS011;31440;48.584;13.460;2022-12-10T14:53:48;24.10;;;15.00;;
45730;SDS011;31440;48.584;13.460;2022-12-10T14:56:23;24.27;;;15.65;;
45730;SDS011;31440;48.584;13.460;2022-12-10T15:04:00;22.17;;;13.98;;
45730;SDS011;31440;48.584;13.460;2022-12-10T15:06:28;21.67;;;14.07;;
45730;SDS011;31440;48.584;13.460;2022-12-10T15:08:59;26.25;;;15.20;;
45730;SDS011;31440;48.584;13.460;2022-12-10T15:11:25;23.75;;;14.80;;
45730;SDS011;31440;48.584;13.460;2022-12-10T15:13:53;28.65;;;17.80;;
45730;SDS011;31440;48.584;13.460;2022-12-10T15:16:37;25.73;;;15.23;;
45730;SDS011;31440;48.584;13.460;2022-12-10T15:21:43;29.20;;;15.82;;
45730;SDS011;31440;48.584;13.460;2022-12-10T15:24:13;24.92;;;14.55;;
45730;SDS011;31440;48.584;13.460;2022-12-10T15:26:45;27.15;;;15.55;;
45730;SDS011;31440;48.584;13.460;2022-12-10T15:31:47;32.53;;;18.40;;
45730;SDS011;31440;48.584;13.460;2022-12-10T15:34:14;33.78;;;18.45;;
45730;SDS011;31440;48.584;13.460;2022-12-10T15:36:41;30.70;;;17.20;;
45730;SDS011;31440;48.584;13.460;2022-12-10T15:39:15;34.80;;;16.20;;
45730;SDS011;31440;48.584;13.460;2022-12-10T15:41:45;32.97;;;18.10;;
45730;SDS011;31440;48.584;13.460;2022-12-10T15:49:47;31.67;;;16.53;;
45730;SDS011;31440;48.584;13.460;2022-12-10T15:52:20;32.88;;;17.65;;
45730;SDS011;31440;48.584;13.460;2022-12-10T15:54:51;33.75;;;18.08;;
45730;SDS011;31440;48.584;13.460;2022-12-10T15:59:47;31.98;;;17.50;;
45730;SDS011;31440;48.584;13.460;2022-12-10T16:04:59;30.10;;;16.58;;
45730;SDS011;31440;48.584;13.460;2022-12-10T16:07:24;30.10;;;16.33;;
45730;SDS011;31440;48.584;13.460;2022-12-10T16:09:50;32.05;;;18.10;;
45730;SDS011;31440;48.584;13.460;2022-12-10T16:12:16;32.47;;;17.73;;
45730;SDS011;31440;48.584;13.460;2022-12-10T16:14:45;30.75;;;16.10;;
45730;SDS011;31440;48.584;13.460;2022-12-10T16:17:14;29.60;;;15.93;;
45730;SDS011;31440;48.584;13.460;2022-12-10T16:19:39;29.52;;;16.98;;
45730;SDS011;31440;48.584;13.460;2022-12-10T16:22:05;35.13;;;20.08;;
45730;SDS011;31440;48.584;13.460;2022-12-10T16:24:30;31.02;;;17.00;;